createdAt,value
2022-09-28T00:00:11.607Z,99301.41
2022-09-28T00:03:15.143Z,99303.88
2022-09-28T00:06:21.223Z,99306.47
2022-09-28T00:09:24.119Z,99306.66
2022-09-28T00:12:28.328Z,99301.75
2022-09-28T00:15:31.939Z,99284.47
2022-09-28T00:18:36.251Z,99274.22
2022-09-28T00:21:40.461Z,99276.81
2022-09-28T00:24:43.283Z,99281.94
2022-09-28T00:27:50.444Z,99265.00
2022-09-28T00:30:56.602Z,99296.28
2022-09-28T00:34:00.581Z,99284.81
2022-09-28T00:37:04.962Z,99290.00
2022-09-28T00:40:07.938Z,99301.22
2022-09-28T00:43:20.695Z,99295.13
2022-09-28T00:46:32.553Z,99302.22
2022-09-28T00:49:50.877Z,99260.97
2022-09-28T00:52:57.691Z,99305.69
2022-09-28T00:56:07.544Z,99289.91
2022-09-28T00:59:10.936Z,99301.34
2022-09-28T01:02:14.207Z,99304.75
2022-09-28T01:05:24.810Z,99310.81
2022-09-28T01:08:30.138Z,99305.56
2022-09-28T01:11:34.915Z,99302.94
2022-09-28T01:14:39.974Z,99301.22
2022-09-28T01:18:04.396Z,99311.69
2022-09-28T01:21:19.374Z,99311.59
2022-09-28T01:24:41.146Z,99309.00
2022-09-28T01:27:52.638Z,99315.03
2022-09-28T01:31:13.165Z,99296.66
2022-09-28T01:34:40.038Z,99325.44
2022-09-28T01:37:54.936Z,99319.25
2022-09-28T01:40:59.960Z,99324.44
2022-09-28T01:44:05.032Z,99325.28
2022-09-28T01:47:09.656Z,99330.53
2022-09-28T01:50:16.251Z,99336.72
2022-09-28T01:53:26.208Z,99321.00
2022-09-28T01:56:36.995Z,99333.25
2022-09-28T01:59:44.540Z,99289.34
2022-09-28T02:02:57.425Z,99335.75
2022-09-28T02:06:08.374Z,99340.06
2022-09-28T02:09:22.696Z,99324.19
2022-09-28T02:12:41.717Z,99344.25
2022-09-28T02:16:00.484Z,99338.03
2022-09-28T02:19:06.199Z,99350.16
2022-09-28T02:22:15.032Z,99344.16
2022-09-28T02:25:39.792Z,99352.75
2022-09-28T02:28:43.211Z,99347.59
2022-09-28T02:31:46.618Z,99350.28
2022-09-28T02:34:49.946Z,99352.06
2022-09-28T02:37:55.127Z,99345.13
2022-09-28T02:41:32.109Z,99340.59
2022-09-28T02:45:00.618Z,99346.00
2022-09-28T02:48:19.128Z,99345.31
2022-09-28T02:51:36.550Z,99329.72
2022-09-28T02:54:46.011Z,99343.94
2022-09-28T02:58:27.548Z,99356.13
2022-09-28T03:01:38.811Z,99357.03
2022-09-28T03:04:52.588Z,99346.59
2022-09-28T03:08:09.740Z,99362.22
2022-09-28T03:11:22.854Z,99371.75
2022-09-28T03:14:26.658Z,99370.78
2022-09-28T03:17:31.697Z,99370.72
2022-09-28T03:20:37.322Z,99374.25
2022-09-28T03:23:40.968Z,99379.44
2022-09-28T03:26:45.308Z,99374.13
2022-09-28T03:29:48.996Z,99365.41
2022-09-28T03:33:00.844Z,99378.50
2022-09-28T03:36:06.889Z,99363.66
2022-09-28T03:39:09.614Z,99363.63
2022-09-28T03:42:13.898Z,99375.84
2022-09-28T03:45:17.388Z,99387.09
2022-09-28T03:48:32.403Z,99369.69
2022-09-28T03:51:35.921Z,99388.84
2022-09-28T03:54:39.204Z,99381.00
2022-09-28T03:57:42.193Z,99384.50
2022-09-28T04:00:45.243Z,99367.94
2022-09-28T04:03:59.031Z,99386.16
2022-09-28T04:07:02.205Z,99379.25
2022-09-28T04:10:11.011Z,99380.91
2022-09-28T04:13:15.402Z,99368.66
2022-09-28T04:16:19.591Z,99372.19
2022-09-28T04:19:24.251Z,99366.84
2022-09-28T04:22:28.337Z,99373.81
2022-09-28T04:25:31.109Z,99366.78
2022-09-28T04:28:54.161Z,99364.94
2022-09-28T04:31:57.175Z,99367.47
2022-09-28T04:35:03.227Z,99360.47
2022-09-28T04:38:06.085Z,99353.37
2022-09-28T04:41:10.329Z,99357.78
2022-09-28T04:44:15.051Z,99364.75
2022-09-28T04:47:20.159Z,99362.09
2022-09-28T04:50:33.240Z,99358.47
2022-09-28T04:53:43.796Z,99343.44
2022-09-28T04:56:47.921Z,99362.72
2022-09-28T04:59:51.910Z,99362.63
2022-09-28T05:02:56.343Z,99366.88
2022-09-28T05:06:00.336Z,99363.31
2022-09-28T05:09:03.151Z,99372.69
2022-09-28T05:12:09.617Z,99366.50
2022-09-28T05:15:14.756Z,99370.72
2022-09-28T05:18:20.815Z,99379.16
2022-09-28T05:21:25.931Z,99392.00
2022-09-28T05:24:29.263Z,99378.75
2022-09-28T05:27:34.296Z,99388.25
2022-09-28T05:30:40.105Z,99398.72
2022-09-28T05:33:43.607Z,99397.84
2022-09-28T05:36:47.860Z,99396.91
2022-09-28T05:39:50.442Z,99386.50
2022-09-28T05:43:03.521Z,99390.34
2022-09-28T05:46:08.001Z,99387.50
2022-09-28T05:49:13.016Z,99389.19
2022-09-28T05:52:17.652Z,99374.59
2022-09-28T05:55:21.857Z,99379.88
2022-09-28T05:58:28.971Z,99369.53
2022-09-28T06:01:39.718Z,99368.41
2022-09-28T06:04:52.499Z,99358.16
2022-09-28T06:07:59.289Z,99362.94
2022-09-28T06:11:12.882Z,99364.03
2022-09-28T06:14:18.255Z,99368.28
2022-09-28T06:17:22.226Z,99363.00
2022-09-28T06:20:29.350Z,99366.88
2022-09-28T06:23:35.502Z,99360.41
2022-09-28T06:26:39.950Z,99359.19
2022-09-28T06:29:46.410Z,99367.44
2022-09-28T06:32:53.942Z,99358.84
2022-09-28T06:35:59.516Z,99364.59
2022-09-28T06:39:02.520Z,99367.69
2022-09-28T06:42:05.921Z,99366.34
2022-09-28T06:45:13.651Z,99366.03
2022-09-28T06:48:18.201Z,99343.13
2022-09-28T06:51:23.933Z,99365.41
2022-09-28T06:54:28.866Z,99363.53
2022-09-28T06:57:33.193Z,99363.88
2022-09-28T07:00:41.733Z,99360.03
2022-09-28T07:03:46.657Z,99364.56
2022-09-28T07:06:52.858Z,99352.13
2022-09-28T07:09:57.880Z,99351.31
2022-09-28T07:13:04.815Z,99359.69
2022-09-28T07:16:10.259Z,99356.06
2022-09-28T07:19:16.755Z,99356.50
2022-09-28T07:22:33.282Z,99359.69
2022-09-28T07:25:45.555Z,99368.81
2022-09-28T07:28:56.030Z,99359.59
2022-09-28T07:32:01.923Z,99355.31
2022-09-28T07:35:08.422Z,99365.72
2022-09-28T07:38:12.990Z,99358.44
2022-09-28T07:41:21.720Z,99360.94
2022-09-28T07:44:26.016Z,99360.72
2022-09-28T07:47:34.596Z,99333.31
2022-09-28T07:50:55.264Z,99367.59
2022-09-28T07:54:03.230Z,99359.19
2022-09-28T07:57:09.875Z,99336.41
2022-09-28T08:00:15.973Z,99366.78
2022-09-28T08:03:24.846Z,99373.12
2022-09-28T08:06:31.065Z,99366.53
2022-09-28T08:09:36.060Z,99360.75
2022-09-28T08:12:48.069Z,99352.81
2022-09-28T08:16:00.012Z,99340.94
2022-09-28T08:19:04.801Z,99331.69
2022-09-28T08:22:10.133Z,99334.81
2022-09-28T08:25:15.162Z,99334.47
2022-09-28T08:28:19.626Z,99327.72
2022-09-28T08:31:24.946Z,99323.06
2022-09-28T08:34:31.047Z,99340.06
2022-09-28T08:37:35.913Z,99341.47
2022-09-28T08:41:00.240Z,99342.47
2022-09-28T08:44:10.750Z,99346.50
2022-09-28T08:47:41.130Z,99356.19
2022-09-28T08:51:11.630Z,99350.75
2022-09-28T08:54:29.615Z,99351.66
2022-09-28T08:57:50.643Z,99352.59
2022-09-28T09:00:55.003Z,99343.78
2022-09-28T09:03:58.947Z,99334.53
2022-09-28T09:07:13.044Z,99329.66
2022-09-28T09:11:05.871Z,99325.59
2022-09-28T09:14:23.261Z,99323.97
2022-09-28T09:17:50.362Z,99323.78
2022-09-28T09:20:59.547Z,99314.78
2022-09-28T09:24:18.196Z,99330.63
2022-09-28T09:27:21.324Z,99319.06
2022-09-28T09:30:30.762Z,99309.47
2022-09-28T09:33:46.956Z,99320.75
2022-09-28T09:37:11.983Z,99308.28
2022-09-28T09:40:43.115Z,99319.47
2022-09-28T09:44:26.860Z,99311.75
2022-09-28T09:47:36.159Z,99318.62
2022-09-28T09:50:51.096Z,99313.59
2022-09-28T09:54:06.830Z,99318.50
2022-09-28T09:57:36.260Z,99312.44
2022-09-28T10:00:45.677Z,99325.13
2022-09-28T10:03:54.352Z,99320.03
2022-09-28T10:06:59.588Z,99322.53
2022-09-28T10:10:03.393Z,99322.31
2022-09-28T10:13:19.866Z,99317.56
2022-09-28T10:16:25.179Z,99318.34
2022-09-28T10:19:32.892Z,99323.75
2022-09-28T10:22:41.876Z,99320.69
2022-09-28T10:25:46.658Z,99318.25
2022-09-28T10:29:05.324Z,99325.13
2022-09-28T10:32:19.748Z,99329.53
2022-09-28T10:35:28.437Z,99331.75
2022-09-28T10:38:32.233Z,99319.03
2022-09-28T10:41:49.706Z,99322.56
2022-09-28T10:44:57.423Z,99313.16
2022-09-28T10:48:04.254Z,99326.47
2022-09-28T10:51:08.939Z,99314.75
2022-09-28T10:54:22.208Z,99321.69
2022-09-28T10:57:45.058Z,99322.47
2022-09-28T11:00:50.186Z,99330.03
2022-09-28T11:04:08.160Z,99325.84
2022-09-28T11:07:22.705Z,99324.00
2022-09-28T11:10:27.787Z,99313.72
2022-09-28T11:13:33.535Z,99317.19
2022-09-28T11:16:38.038Z,99315.28
2022-09-28T11:19:43.745Z,99310.69
2022-09-28T11:22:52.577Z,99297.41
2022-09-28T11:26:06.935Z,99298.44
2022-09-28T11:29:26.845Z,99297.41
2022-09-28T11:32:45.064Z,99293.94
2022-09-28T11:36:00.201Z,99291.91
2022-09-28T11:39:18.127Z,99288.91
2022-09-28T11:42:29.707Z,99290.84
2022-09-28T11:45:33.727Z,99295.19
2022-09-28T11:48:43.125Z,99280.91
2022-09-28T11:51:48.847Z,99289.97
2022-09-28T11:54:55.808Z,99295.03
2022-09-28T11:58:06.116Z,99288.50
2022-09-28T12:01:28.249Z,99277.16
2022-09-28T12:05:09.901Z,99281.12
2022-09-28T12:08:22.561Z,99272.31
2022-09-28T12:11:39.548Z,99266.63
2022-09-28T12:14:45.164Z,99263.88
2022-09-28T12:17:54.736Z,99243.94
2022-09-28T12:21:11.266Z,99240.94
2022-09-28T12:24:24.198Z,99245.81
2022-09-28T12:27:33.395Z,99239.63
2022-09-28T12:30:40.797Z,99237.31
2022-09-28T12:33:47.472Z,99235.91
2022-09-28T12:37:15.923Z,99235.19
2022-09-28T12:40:18.996Z,99232.41
2022-09-28T12:43:59.743Z,99218.19
2022-09-28T12:47:29.897Z,99205.69
2022-09-28T12:50:56.757Z,99202.97
2022-09-28T12:54:11.337Z,99202.13
2022-09-28T12:57:34.966Z,99206.66
2022-09-28T13:01:27.746Z,99208.44
2022-09-28T13:04:39.902Z,99208.44
2022-09-28T13:08:13.739Z,99205.03
2022-09-28T13:11:38.765Z,99190.19
2022-09-28T13:14:56.072Z,99190.97
2022-09-28T13:18:08.854Z,99197.97
2022-09-28T13:21:41.979Z,99202.41
2022-09-28T13:24:48.137Z,99196.38
2022-09-28T13:28:10.988Z,99199.66
2022-09-28T13:31:32.414Z,99201.41
2022-09-28T13:34:37.139Z,99209.34
2022-09-28T13:37:50.592Z,99202.47
2022-09-28T13:41:05.203Z,99201.78
2022-09-28T13:44:12.555Z,99197.41
2022-09-28T13:47:39.917Z,99195.69
2022-09-28T13:51:06.144Z,99201.84
2022-09-28T13:54:41.536Z,99207.22
2022-09-28T13:58:04.844Z,99205.44
2022-09-28T14:01:22.229Z,99209.56
2022-09-28T14:05:04.813Z,99212.12
2022-09-28T14:08:23.752Z,99195.47
2022-09-28T14:11:27.969Z,99196.38
2022-09-28T14:14:51.193Z,99199.69
2022-09-28T14:18:00.451Z,99199.56
2022-09-28T14:21:34.849Z,99188.84
2022-09-28T14:24:49.456Z,99193.19
2022-09-28T14:28:01.455Z,99177.47
2022-09-28T14:31:09.980Z,99176.94
2022-09-28T14:34:35.857Z,99164.88
2022-09-28T14:38:02.971Z,99175.63
2022-09-28T14:41:14.912Z,99174.88
2022-09-28T14:44:22.057Z,99173.13
2022-09-28T14:47:45.893Z,99167.09
2022-09-28T14:50:50.044Z,99158.38
2022-09-28T14:54:12.925Z,99167.06
2022-09-28T14:57:24.952Z,99174.06
2022-09-28T15:00:32.938Z,99173.31
2022-09-28T15:03:49.855Z,99167.31
2022-09-28T15:06:56.134Z,99160.31
2022-09-28T15:10:11.161Z,99167.31
2022-09-28T15:13:25.250Z,99159.41
2022-09-28T15:16:31.942Z,99169.19
2022-09-28T15:20:03.861Z,99168.44
2022-09-28T15:23:24.870Z,99166.75
2022-09-28T15:26:36.728Z,99170.34
2022-09-28T15:30:12.808Z,99160.72
2022-09-28T15:33:44.103Z,99147.59
2022-09-28T15:36:48.810Z,99152.00
2022-09-28T15:39:59.155Z,99152.03
2022-09-28T15:43:30.918Z,99159.97
2022-09-28T15:46:38.957Z,99146.91
2022-09-28T15:50:00.333Z,99151.31
2022-09-28T15:53:06.134Z,99166.31
2022-09-28T15:56:10.396Z,99170.75
2022-09-28T15:59:14.027Z,99158.56
2022-09-28T16:02:20.821Z,99147.22
2022-09-28T16:05:51.058Z,99152.53
2022-09-28T16:09:41.292Z,99155.25
2022-09-28T16:13:09.931Z,99148.25
2022-09-28T16:16:28.569Z,99155.31
2022-09-28T16:19:45.019Z,99145.66
2022-09-28T16:23:36.709Z,99142.19
2022-09-28T16:26:40.605Z,99143.91
2022-09-28T16:30:21.969Z,99134.34
2022-09-28T16:33:48.938Z,99149.22
2022-09-28T16:36:56.117Z,99156.28
2022-09-28T16:40:00.395Z,99149.34
2022-09-28T16:43:08.934Z,99152.91
2022-09-28T16:46:20.903Z,99153.78
2022-09-28T16:49:25.884Z,99154.72
2022-09-28T16:52:55.739Z,99151.22
2022-09-28T16:56:03.132Z,99153.84
2022-09-28T16:59:13.640Z,99159.09
2022-09-28T17:05:51.132Z,99164.38
2022-09-28T17:09:07.375Z,99149.56
2022-09-28T17:12:20.692Z,99135.59
2022-09-28T17:15:27.370Z,99150.47
2022-09-28T17:18:40.108Z,99154.81
2022-09-28T17:21:52.454Z,99155.72
2022-09-28T17:24:56.970Z,99134.78
2022-09-28T17:28:09.847Z,99138.28
2022-09-28T17:31:22.663Z,99154.03
2022-09-28T17:34:38.842Z,99161.06
2022-09-28T17:37:46.065Z,99160.25
2022-09-28T17:40:56.152Z,99164.69
2022-09-28T17:44:03.202Z,99158.59
2022-09-28T17:47:17.736Z,99150.78
2022-09-28T17:50:35.638Z,99165.66
2022-09-28T17:53:45.984Z,99167.44
2022-09-28T17:56:53.907Z,99175.31
2022-09-28T18:00:02.130Z,99170.09
2022-09-28T18:03:26.140Z,99183.22
2022-09-28T18:06:33.931Z,99185.87
2022-09-28T18:09:39.950Z,99185.03
2022-09-28T18:12:49.991Z,99184.19
2022-09-28T18:16:01.633Z,99194.69
2022-09-28T18:19:16.635Z,99195.59
2022-09-28T18:22:22.921Z,99195.59
2022-09-28T18:25:39.126Z,99191.22
2022-09-28T18:28:46.924Z,99196.47
2022-09-28T18:31:58.949Z,99195.59
2022-09-28T18:35:20.602Z,99192.97
2022-09-28T18:38:36.291Z,99207.81
2022-09-28T18:41:54.868Z,99206.94
2022-09-28T18:45:21.851Z,99206.94
2022-09-28T18:48:31.966Z,99211.31
2022-09-28T18:51:37.277Z,99221.78
2022-09-28T18:54:54.341Z,99212.19
2022-09-28T18:58:17.892Z,99216.50
2022-09-28T19:01:32.248Z,99220.88
2022-09-28T19:04:36.968Z,99213.88
2022-09-28T19:07:44.610Z,99216.50
2022-09-28T19:11:15.053Z,99210.38
2022-09-28T19:14:18.757Z,99212.97
2022-09-28T19:17:22.828Z,99210.34
2022-09-28T19:20:26.922Z,99205.94
2022-09-28T19:23:46.871Z,99214.69
2022-09-28T19:27:02.998Z,99216.44
2022-09-28T19:30:19.936Z,99219.94
2022-09-28T19:33:31.240Z,99221.69
2022-09-28T19:36:37.876Z,99222.53
2022-09-28T19:39:53.226Z,99212.94
2022-09-28T19:43:02.966Z,99223.41
2022-09-28T19:46:20.028Z,99218.19
2022-09-28T19:49:24.935Z,99217.31
2022-09-28T19:52:28.415Z,99216.41
2022-09-28T19:55:36.917Z,99187.63
2022-09-28T19:58:40.822Z,99181.53
2022-09-28T20:01:56.386Z,99197.25
2022-09-28T20:05:16.050Z,99191.13
2022-09-28T20:08:24.931Z,99185.03
2022-09-28T20:11:34.884Z,99194.63
2022-09-28T20:14:40.442Z,99190.25
2022-09-28T20:17:44.759Z,99198.13
2022-09-28T20:20:49.743Z,99196.34
2022-09-28T20:23:59.852Z,99199.84
2022-09-28T20:27:16.056Z,99164.03
2022-09-28T20:30:21.069Z,99198.09
2022-09-28T20:33:28.940Z,99184.13
2022-09-28T20:36:34.960Z,99182.38
2022-09-28T20:39:44.107Z,99181.50
2022-09-28T20:42:49.493Z,99178.00
2022-09-28T20:45:53.007Z,99166.62
2022-09-28T20:48:57.929Z,99164.03
2022-09-28T20:52:02.904Z,99164.03
2022-09-28T20:55:11.111Z,99160.53
2022-09-28T20:58:14.202Z,99163.13
2022-09-28T21:01:30.054Z,99168.38
2022-09-28T21:04:32.848Z,99169.25
2022-09-28T21:07:36.012Z,99157.03
2022-09-28T21:10:45.168Z,99152.69
2022-09-28T21:13:48.978Z,99152.69
2022-09-28T21:16:52.620Z,99157.91
2022-09-28T21:19:57.324Z,99162.28
2022-09-28T21:23:00.949Z,99164.91
2022-09-28T21:26:06.785Z,99151.81
2022-09-28T21:29:14.284Z,99145.72
2022-09-28T21:32:18.082Z,99138.72
2022-09-28T21:35:21.151Z,99136.97
2022-09-28T21:38:23.979Z,99126.50
2022-09-28T21:41:29.192Z,99137.84
2022-09-28T21:44:33.579Z,99138.72
2022-09-28T21:47:36.198Z,99134.34
2022-09-28T21:50:40.173Z,99143.94
2022-09-28T21:53:43.296Z,99141.34
2022-09-28T21:56:46.563Z,99138.72
2022-09-28T21:59:49.030Z,99132.63
2022-09-28T22:02:53.431Z,99143.97
2022-09-28T22:05:56.880Z,99157.94
2022-09-28T22:09:00.033Z,99145.72
2022-09-28T22:12:03.385Z,99150.97
2022-09-28T22:15:06.670Z,99152.72
2022-09-28T22:18:09.387Z,99144.84
2022-09-28T22:21:16.363Z,99143.97
2022-09-28T22:24:19.504Z,99156.19
2022-09-28T22:27:21.998Z,99145.72
2022-09-28T22:30:24.982Z,99137.84
2022-09-28T22:33:30.448Z,99130.88
2022-09-28T22:36:33.569Z,99132.63
2022-09-28T22:39:42.151Z,99123.87
2022-09-28T22:42:45.544Z,99136.09
2022-09-28T22:45:48.590Z,99147.47
2022-09-28T22:48:54.925Z,99151.84
2022-09-28T22:51:58.247Z,99157.94
2022-09-28T22:55:02.036Z,99137.84
2022-09-28T22:58:04.687Z,99144.84
2022-09-28T23:01:15.605Z,99142.22
2022-09-28T23:04:18.415Z,99144.84
2022-09-28T23:07:21.527Z,99140.47
2022-09-28T23:10:26.922Z,99146.59
2022-09-28T23:13:32.485Z,99136.09
2022-09-28T23:16:35.255Z,99144.84
2022-09-28T23:19:38.043Z,99142.22
2022-09-28T23:22:40.500Z,99143.97
2022-09-28T23:25:43.445Z,99145.72
2022-09-28T23:28:47.148Z,99134.38
2022-09-28T23:31:50.918Z,99137.88
2022-09-28T23:34:53.565Z,99132.63
2022-09-28T23:37:56.805Z,99122.16
2022-09-28T23:40:59.921Z,99116.91
2022-09-28T23:44:04.159Z,99141.34
2022-09-28T23:47:07.058Z,99132.63
2022-09-28T23:50:10.170Z,99135.25
2022-09-28T23:53:14.381Z,99131.75
2022-09-28T23:56:17.362Z,99141.38
2022-09-28T23:59:20.277Z,99137.00
